createdAt,value
2024-01-31T00:02:15.845Z,4.30
2024-01-31T00:05:04.032Z,4.50
2024-01-31T00:07:51.804Z,4.07
2024-01-31T00:10:39.401Z,4.47
2024-01-31T00:13:26.794Z,6.23
2024-01-31T00:16:15.953Z,3.27
2024-01-31T00:19:03.395Z,4.30
2024-01-31T00:21:51.122Z,3.93
2024-01-31T00:24:38.431Z,4.30
2024-01-31T00:27:26.067Z,3.17
2024-01-31T00:30:14.071Z,3.60
2024-01-31T00:33:02.720Z,4.07
2024-01-31T00:35:50.521Z,5.63
2024-01-31T00:38:37.829Z,5.47
2024-01-31T00:41:25.476Z,3.67
2024-01-31T00:44:12.782Z,5.13
2024-01-31T00:47:00.606Z,3.37
2024-01-31T00:49:49.321Z,4.03
2024-01-31T00:52:37.131Z,5.07
2024-01-31T00:55:24.695Z,5.00
2024-01-31T00:58:12.273Z,4.03
2024-01-31T01:00:59.882Z,4.13
2024-01-31T01:03:47.341Z,4.43
2024-01-31T01:06:36.091Z,4.67
2024-01-31T01:09:23.850Z,5.07
2024-01-31T01:12:11.157Z,13.07
2024-01-31T01:15:05.359Z,6.80
2024-01-31T01:18:00.245Z,3.60
2024-01-31T01:20:47.612Z,7.43
2024-01-31T01:23:36.642Z,10.63
2024-01-31T01:26:23.942Z,4.03
2024-01-31T01:29:11.645Z,4.30
2024-01-31T01:31:58.943Z,4.00
2024-01-31T01:34:47.738Z,4.27
2024-01-31T01:37:35.045Z,5.50
2024-01-31T01:40:23.954Z,3.70
2024-01-31T01:43:18.605Z,6.67
2024-01-31T01:46:11.941Z,3.83
2024-01-31T01:48:59.268Z,3.47
2024-01-31T01:51:47.327Z,4.47
2024-01-31T01:54:36.225Z,4.73
2024-01-31T01:57:25.277Z,4.87
2024-01-31T02:00:14.538Z,4.20
2024-01-31T02:03:03.308Z,3.87
2024-01-31T02:05:51.276Z,3.73
2024-01-31T02:08:38.540Z,3.90
2024-01-31T02:11:26.137Z,5.13
2024-01-31T02:14:15.076Z,4.93
2024-01-31T02:17:02.638Z,4.50
2024-01-31T02:19:50.696Z,8.33
2024-01-31T02:22:39.678Z,4.03
2024-01-31T02:25:27.525Z,4.30
2024-01-31T02:28:15.262Z,3.20
2024-01-31T02:31:03.247Z,3.70
2024-01-31T02:33:50.683Z,4.83
2024-01-31T02:36:38.472Z,3.70
2024-01-31T02:39:27.133Z,3.70
2024-01-31T02:42:15.812Z,4.83
2024-01-31T02:45:03.194Z,3.87
2024-01-31T02:47:51.012Z,3.60
2024-01-31T02:50:39.702Z,3.93
2024-01-31T02:53:27.037Z,4.37
2024-01-31T02:56:16.296Z,3.90
2024-01-31T02:59:03.518Z,3.17
2024-01-31T03:01:51.465Z,6.60
2024-01-31T03:04:38.724Z,3.27
2024-01-31T03:07:26.530Z,3.20
2024-01-31T03:10:14.277Z,5.83
2024-01-31T03:13:03.116Z,4.90
2024-01-31T03:15:50.398Z,3.43
2024-01-31T03:18:38.069Z,3.10
2024-01-31T03:21:25.389Z,3.80
2024-01-31T03:24:14.291Z,5.50
2024-01-31T03:27:01.624Z,5.13
2024-01-31T03:29:50.625Z,5.00
2024-01-31T03:32:38.171Z,3.27
2024-01-31T03:35:26.166Z,4.43
2024-01-31T03:38:13.502Z,4.57
2024-01-31T03:41:01.170Z,2.87
2024-01-31T03:43:48.414Z,3.40
2024-01-31T03:46:37.630Z,4.57
2024-01-31T03:49:25.072Z,6.87
2024-01-31T03:52:12.325Z,7.83
2024-01-31T03:55:01.439Z,5.43
2024-01-31T03:57:48.698Z,4.97
2024-01-31T04:00:36.246Z,3.63
2024-01-31T04:03:24.848Z,4.43
2024-01-31T04:06:13.255Z,3.47
2024-01-31T04:09:00.470Z,4.80
2024-01-31T04:11:48.059Z,4.07
2024-01-31T04:14:35.297Z,3.67
2024-01-31T04:17:23.316Z,4.40
2024-01-31T04:20:13.121Z,6.20
2024-01-31T04:23:00.957Z,4.73
2024-01-31T04:25:48.257Z,7.77
2024-01-31T04:28:35.566Z,7.63
2024-01-31T04:31:23.395Z,4.53
2024-01-31T04:34:10.786Z,3.63
2024-01-31T04:36:59.916Z,4.33
2024-01-31T04:39:51.662Z,7.23
2024-01-31T04:42:40.312Z,5.47
2024-01-31T04:45:27.568Z,3.70
2024-01-31T04:48:15.327Z,5.07
2024-01-31T04:51:04.123Z,4.43
2024-01-31T04:53:53.038Z,3.70
2024-01-31T04:56:40.370Z,3.40
2024-01-31T04:59:29.109Z,6.23
2024-01-31T05:02:16.703Z,4.97
2024-01-31T05:05:04.503Z,4.27
2024-01-31T05:07:52.054Z,6.73
2024-01-31T05:10:43.516Z,5.47
2024-01-31T05:13:30.987Z,4.13
2024-01-31T05:16:18.647Z,3.87
2024-01-31T05:19:06.319Z,5.63
2024-01-31T05:21:53.856Z,5.43
2024-01-31T05:24:41.652Z,5.87
2024-01-31T05:27:30.693Z,5.83
2024-01-31T05:30:17.957Z,3.97
2024-01-31T05:33:05.991Z,4.37
2024-01-31T05:35:53.417Z,4.17
2024-01-31T05:38:41.692Z,6.13
2024-01-31T05:41:29.216Z,3.30
2024-01-31T05:44:17.822Z,7.40
2024-01-31T05:47:06.069Z,3.67
2024-01-31T05:49:53.335Z,4.33
2024-01-31T05:52:41.231Z,5.60
2024-01-31T05:55:28.564Z,3.60
2024-01-31T05:58:16.329Z,8.20
2024-01-31T06:01:05.084Z,7.63
2024-01-31T06:03:52.615Z,4.73
2024-01-31T06:06:39.867Z,4.90
2024-01-31T06:09:27.750Z,4.83
2024-01-31T06:12:15.020Z,4.37
2024-01-31T06:15:02.538Z,5.43
2024-01-31T06:17:51.569Z,6.07
2024-01-31T06:20:42.091Z,4.83
2024-01-31T06:23:29.397Z,4.73
2024-01-31T06:26:17.048Z,6.40
2024-01-31T06:29:04.311Z,5.77
2024-01-31T06:31:53.733Z,5.83
2024-01-31T06:34:42.382Z,5.10
2024-01-31T06:37:30.235Z,5.17
2024-01-31T06:40:17.732Z,7.50
2024-01-31T06:43:05.900Z,6.90
2024-01-31T06:45:53.342Z,7.90
2024-01-31T06:48:41.228Z,8.03
2024-01-31T06:51:29.806Z,7.03
2024-01-31T06:54:17.153Z,6.67
2024-01-31T06:57:04.807Z,14.17
2024-01-31T06:59:52.137Z,15.93
2024-01-31T07:02:39.745Z,18.57
2024-01-31T07:05:27.570Z,20.47
2024-01-31T07:08:16.231Z,14.00
2024-01-31T07:11:06.040Z,8.07
2024-01-31T07:13:53.451Z,8.33
2024-01-31T07:16:41.176Z,17.57
2024-01-31T07:19:29.559Z,19.60
2024-01-31T07:22:16.776Z,21.50
2024-01-31T07:25:12.222Z,13.37
2024-01-31T07:27:59.670Z,12.10
2024-01-31T07:30:47.507Z,14.10
2024-01-31T07:33:35.982Z,21.43
2024-01-31T07:36:23.726Z,8.17
2024-01-31T07:39:11.414Z,9.60
2024-01-31T07:42:00.001Z,6.73
2024-01-31T07:44:47.782Z,6.57
2024-01-31T07:47:38.389Z,5.80
2024-01-31T07:50:25.985Z,6.67
2024-01-31T07:53:13.334Z,7.87
2024-01-31T07:56:03.165Z,10.00
2024-01-31T07:58:53.624Z,10.80
2024-01-31T08:01:41.401Z,8.77
2024-01-31T08:04:29.144Z,5.27
2024-01-31T08:07:17.046Z,9.80
2024-01-31T08:10:05.057Z,7.27
2024-01-31T08:12:52.761Z,20.03
2024-01-31T08:15:41.706Z,11.43
2024-01-31T08:18:29.113Z,6.50
2024-01-31T08:21:16.589Z,5.13
2024-01-31T08:24:04.330Z,16.20
2024-01-31T08:26:52.512Z,20.23
2024-01-31T08:29:40.114Z,10.93
2024-01-31T08:32:29.869Z,4.70
2024-01-31T08:35:17.719Z,4.03
2024-01-31T08:38:05.575Z,8.23
2024-01-31T08:40:53.057Z,5.37
2024-01-31T08:43:40.809Z,4.73
2024-01-31T08:46:29.359Z,5.33
2024-01-31T08:49:18.575Z,4.40
2024-01-31T08:52:06.976Z,13.60
2024-01-31T08:54:54.861Z,9.53
2024-01-31T08:57:42.052Z,5.93
2024-01-31T09:00:31.072Z,6.60
2024-01-31T09:03:19.140Z,5.73
2024-01-31T09:06:08.394Z,6.27
2024-01-31T09:08:56.104Z,8.70
2024-01-31T09:11:43.793Z,5.50
2024-01-31T09:14:31.386Z,8.30
2024-01-31T09:17:19.001Z,7.37
2024-01-31T09:20:07.697Z,8.93
2024-01-31T09:22:56.759Z,5.57
2024-01-31T09:25:44.184Z,5.20
2024-01-31T09:28:32.023Z,7.10
2024-01-31T09:31:22.947Z,5.57
2024-01-31T09:34:10.490Z,6.67
2024-01-31T09:36:58.412Z,11.30
2024-01-31T09:39:47.269Z,8.70
2024-01-31T09:42:34.672Z,9.50
2024-01-31T09:45:23.326Z,7.50
2024-01-31T09:48:13.712Z,7.88
2024-01-31T09:51:04.044Z,6.78
2024-01-31T09:53:57.444Z,7.03
2024-01-31T09:56:46.322Z,6.60
2024-01-31T09:59:33.940Z,4.97
2024-01-31T10:02:22.652Z,10.05
2024-01-31T10:05:09.874Z,6.78
2024-01-31T10:08:02.373Z,7.05
2024-01-31T10:10:50.939Z,4.70
2024-01-31T10:13:40.327Z,6.05
2024-01-31T10:16:28.354Z,7.28
2024-01-31T10:19:16.466Z,4.78
2024-01-31T10:22:04.589Z,4.50
2024-01-31T10:24:52.404Z,4.97
2024-01-31T10:27:40.224Z,5.43
2024-01-31T10:30:30.480Z,8.00
2024-01-31T10:33:19.574Z,4.75
2024-01-31T10:37:07.693Z,6.18
2024-01-31T10:39:20.119Z,9.10
2024-01-31T10:42:08.637Z,7.20
2024-01-31T10:44:56.920Z,11.68
2024-01-31T10:47:45.923Z,7.53
2024-01-31T10:50:34.880Z,8.02
2024-01-31T10:53:23.651Z,7.70
2024-01-31T10:56:12.745Z,7.43
2024-01-31T10:59:03.431Z,9.40
2024-01-31T11:01:53.374Z,6.97
2024-01-31T11:04:43.622Z,8.77
2024-01-31T11:07:31.730Z,6.53
2024-01-31T11:10:23.141Z,8.33
2024-01-31T11:13:11.074Z,10.27
2024-01-31T11:15:58.338Z,8.30
2024-01-31T11:18:47.982Z,6.22
2024-01-31T11:21:39.420Z,5.72
2024-01-31T11:24:27.361Z,6.57
2024-01-31T11:27:15.677Z,5.05
2024-01-31T11:30:04.861Z,6.50
2024-01-31T11:32:52.465Z,5.38
2024-01-31T11:35:40.239Z,7.32
2024-01-31T11:38:29.077Z,5.20
2024-01-31T11:41:16.951Z,15.70
2024-01-31T11:44:05.756Z,5.07
2024-01-31T11:46:53.425Z,8.63
2024-01-31T11:49:41.390Z,7.18
2024-01-31T11:52:28.697Z,6.57
2024-01-31T11:55:22.910Z,7.47
2024-01-31T11:58:10.438Z,6.38
2024-01-31T12:00:57.768Z,8.00
2024-01-31T12:03:46.121Z,7.57
2024-01-31T12:06:33.780Z,5.20
2024-01-31T12:09:20.902Z,6.72
2024-01-31T12:12:12.578Z,6.25
2024-01-31T12:15:00.039Z,6.22
2024-01-31T12:17:47.847Z,6.95
2024-01-31T12:20:35.655Z,7.72
2024-01-31T12:23:23.749Z,6.53
2024-01-31T12:26:11.956Z,4.80
2024-01-31T12:29:00.553Z,5.13
2024-01-31T12:31:48.242Z,5.82
2024-01-31T12:34:35.461Z,8.05
2024-01-31T12:37:23.337Z,8.20
2024-01-31T12:40:12.754Z,9.38
2024-01-31T12:43:00.907Z,7.78
2024-01-31T12:45:49.952Z,5.82
2024-01-31T12:48:37.901Z,5.82
2024-01-31T12:51:25.223Z,8.68
2024-01-31T12:54:13.042Z,5.97
2024-01-31T12:57:00.415Z,6.45
2024-01-31T12:59:48.346Z,6.78
2024-01-31T13:02:36.871Z,6.82
2024-01-31T13:05:25.325Z,10.23
2024-01-31T13:08:12.773Z,6.35
2024-01-31T13:11:00.834Z,5.78
2024-01-31T13:13:50.795Z,4.38
2024-01-31T13:16:46.378Z,4.63
2024-01-31T13:19:43.943Z,6.05
2024-01-31T13:22:32.125Z,6.07
2024-01-31T13:25:19.883Z,5.93
2024-01-31T13:28:07.171Z,6.40
2024-01-31T13:30:54.842Z,7.03
2024-01-31T13:33:42.614Z,6.30
2024-01-31T13:36:31.359Z,7.45
2024-01-31T13:39:19.165Z,9.32
2024-01-31T13:42:08.903Z,9.07
2024-01-31T13:44:57.515Z,8.68
2024-01-31T13:47:44.928Z,7.90
2024-01-31T13:50:32.780Z,7.00
2024-01-31T13:53:21.510Z,9.05
2024-01-31T13:56:09.673Z,4.47
2024-01-31T13:58:57.214Z,7.82
2024-01-31T14:01:44.920Z,6.57
2024-01-31T14:04:32.568Z,8.48
2024-01-31T14:07:20.089Z,4.45
2024-01-31T14:10:09.784Z,7.57
2024-01-31T14:12:59.727Z,5.45
2024-01-31T14:15:47.502Z,8.55
2024-01-31T14:18:34.925Z,7.10
2024-01-31T14:21:22.237Z,5.70
2024-01-31T14:24:16.060Z,5.45
2024-01-31T14:27:06.684Z,4.82
2024-01-31T14:29:54.399Z,5.00
2024-01-31T14:32:42.043Z,8.05
2024-01-31T14:35:29.496Z,4.93
2024-01-31T14:38:17.210Z,5.68
2024-01-31T14:41:05.347Z,6.05
2024-01-31T14:43:54.231Z,7.22
2024-01-31T14:46:41.777Z,8.45
2024-01-31T14:49:29.284Z,9.38
2024-01-31T14:52:16.704Z,5.53
2024-01-31T14:55:04.802Z,4.45
2024-01-31T14:57:52.507Z,7.03
2024-01-31T15:00:41.401Z,6.60
2024-01-31T15:03:28.900Z,4.70
2024-01-31T15:06:17.874Z,4.10
2024-01-31T15:09:08.922Z,6.07
2024-01-31T15:12:00.022Z,6.40
2024-01-31T15:14:47.493Z,8.75
2024-01-31T15:17:36.388Z,7.78
2024-01-31T15:20:24.086Z,6.13
2024-01-31T15:23:11.401Z,6.75
2024-01-31T15:25:58.817Z,5.63
2024-01-31T15:28:46.089Z,6.28
2024-01-31T15:31:34.262Z,8.95
2024-01-31T15:34:23.005Z,8.50
2024-01-31T15:37:10.800Z,6.20
2024-01-31T15:39:58.099Z,7.00
2024-01-31T15:42:45.698Z,5.25
2024-01-31T15:45:32.951Z,12.27
2024-01-31T15:48:20.501Z,8.82
2024-01-31T15:51:09.966Z,6.87
2024-01-31T15:53:57.516Z,7.28
2024-01-31T15:56:45.483Z,8.70
2024-01-31T15:59:33.451Z,8.00
2024-01-31T16:02:21.171Z,10.20
2024-01-31T16:05:10.397Z,15.43
2024-01-31T16:07:59.192Z,10.33
2024-01-31T16:10:46.477Z,9.17
2024-01-31T16:13:34.165Z,9.27
2024-01-31T16:16:21.845Z,12.50
2024-01-31T16:19:09.507Z,14.97
2024-01-31T16:21:56.793Z,9.43
2024-01-31T16:24:45.813Z,6.30
2024-01-31T16:27:36.615Z,10.93
2024-01-31T16:30:25.191Z,9.50
2024-01-31T16:33:12.556Z,12.00
2024-01-31T16:36:00.239Z,18.00
2024-01-31T16:38:47.855Z,9.03
2024-01-31T16:41:36.973Z,9.20
2024-01-31T16:44:24.560Z,8.33
2024-01-31T16:47:11.735Z,11.20
2024-01-31T16:49:59.182Z,16.80
2024-01-31T16:52:46.397Z,12.77
2024-01-31T16:55:33.717Z,9.50
2024-01-31T16:58:22.362Z,14.10
2024-01-31T17:01:10.899Z,18.23
2024-01-31T17:03:59.980Z,21.17
2024-01-31T17:06:47.826Z,18.50
2024-01-31T17:09:35.079Z,22.97
2024-01-31T17:12:22.745Z,19.87
2024-01-31T17:15:11.594Z,17.97
2024-01-31T17:17:59.382Z,13.50
2024-01-31T17:20:48.001Z,12.63
2024-01-31T17:23:36.275Z,14.53
2024-01-31T17:26:23.443Z,12.37
2024-01-31T17:29:10.933Z,12.73
2024-01-31T17:31:59.506Z,10.93
2024-01-31T17:34:47.074Z,14.37
2024-01-31T17:37:34.380Z,14.37
2024-01-31T17:40:22.245Z,17.57
2024-01-31T17:43:09.555Z,17.67
2024-01-31T17:45:57.501Z,12.10
2024-01-31T17:48:46.401Z,14.87
2024-01-31T17:51:34.257Z,17.87
2024-01-31T17:54:22.102Z,15.97
2024-01-31T17:57:09.665Z,19.57
2024-01-31T17:59:57.275Z,13.03
2024-01-31T18:02:44.465Z,10.77
2024-01-31T18:05:33.355Z,13.27
2024-01-31T18:08:20.589Z,12.30
2024-01-31T18:11:08.327Z,11.13
2024-01-31T18:13:55.558Z,11.43
2024-01-31T18:16:43.155Z,10.67
2024-01-31T18:19:30.817Z,10.50
2024-01-31T18:22:19.843Z,11.97
2024-01-31T18:25:08.298Z,15.67
2024-01-31T18:27:56.879Z,10.27
2024-01-31T18:30:44.490Z,11.50
2024-01-31T18:33:32.078Z,13.00
2024-01-31T18:36:19.780Z,17.67
2024-01-31T18:39:08.787Z,17.70
2024-01-31T18:41:55.978Z,14.43
2024-01-31T18:44:43.684Z,20.03
2024-01-31T18:47:31.113Z,22.83
2024-01-31T18:50:18.316Z,15.97
2024-01-31T18:53:05.666Z,10.43
2024-01-31T18:55:55.214Z,12.13
2024-01-31T18:58:43.418Z,12.10
2024-01-31T19:01:30.763Z,11.87
2024-01-31T19:04:18.313Z,14.73
2024-01-31T19:07:05.753Z,10.33
2024-01-31T19:09:53.232Z,11.20
2024-01-31T19:12:41.875Z,7.97
2024-01-31T19:15:29.496Z,7.83
2024-01-31T19:18:16.864Z,9.53
2024-01-31T19:21:04.695Z,12.73
2024-01-31T19:23:53.697Z,7.93
2024-01-31T19:26:41.923Z,8.53
2024-01-31T19:29:32.153Z,7.83
2024-01-31T19:32:19.885Z,10.00
2024-01-31T19:35:07.755Z,7.83
2024-01-31T19:37:54.994Z,8.33
2024-01-31T19:40:42.337Z,7.53
2024-01-31T19:43:29.820Z,10.27
2024-01-31T19:46:21.484Z,11.20
2024-01-31T19:49:09.001Z,13.10
2024-01-31T19:51:56.645Z,11.37
2024-01-31T19:54:44.047Z,10.97
2024-01-31T19:57:31.298Z,11.33
2024-01-31T20:00:19.243Z,10.93
2024-01-31T20:03:07.830Z,11.30
2024-01-31T20:05:55.488Z,19.47
2024-01-31T20:08:42.891Z,14.53
2024-01-31T20:11:30.658Z,14.43
2024-01-31T20:14:17.968Z,11.17
2024-01-31T20:17:05.724Z,7.67
2024-01-31T20:19:54.536Z,8.23
2024-01-31T20:22:43.068Z,8.50
2024-01-31T20:25:30.643Z,8.33
2024-01-31T20:28:18.567Z,9.43
2024-01-31T20:31:06.563Z,10.60
2024-01-31T20:33:55.645Z,7.53
2024-01-31T20:36:44.643Z,6.07
2024-01-31T20:39:32.221Z,9.70
2024-01-31T20:42:19.512Z,7.60
2024-01-31T20:45:08.292Z,7.83
2024-01-31T20:47:55.895Z,8.87
2024-01-31T20:50:43.517Z,9.53
2024-01-31T20:53:32.022Z,9.27
2024-01-31T20:56:22.927Z,9.30
2024-01-31T20:59:12.111Z,10.60
2024-01-31T21:01:59.690Z,10.40
2024-01-31T21:04:47.004Z,8.00
2024-01-31T21:07:40.338Z,7.50
2024-01-31T21:10:29.069Z,9.17
2024-01-31T21:13:18.156Z,8.37
2024-01-31T21:16:07.445Z,10.60
2024-01-31T21:18:55.203Z,9.00
2024-01-31T21:21:42.558Z,9.17
2024-01-31T21:24:32.146Z,8.33
2024-01-31T21:27:22.220Z,8.80
2024-01-31T21:30:11.234Z,7.40
2024-01-31T21:32:59.156Z,11.60
2024-01-31T21:35:46.353Z,7.97
2024-01-31T21:38:34.191Z,8.90
2024-01-31T21:41:27.193Z,8.90
2024-01-31T21:44:17.781Z,7.03
2024-01-31T21:47:05.637Z,8.70
2024-01-31T21:49:53.524Z,7.70
2024-01-31T21:52:43.261Z,7.63
2024-01-31T21:55:31.313Z,6.57
2024-01-31T21:58:18.584Z,6.63
2024-01-31T22:01:07.740Z,6.00
2024-01-31T22:04:00.513Z,7.30
2024-01-31T22:06:49.864Z,8.93
2024-01-31T22:09:37.671Z,7.20
2024-01-31T22:12:24.994Z,9.50
2024-01-31T22:15:13.004Z,8.23
2024-01-31T22:18:02.062Z,8.40
2024-01-31T22:20:49.442Z,7.80
2024-01-31T22:23:37.253Z,7.67
2024-01-31T22:26:25.678Z,8.43
2024-01-31T22:29:13.004Z,8.73
2024-01-31T22:32:05.492Z,8.70
2024-01-31T22:34:54.272Z,7.47
2024-01-31T22:37:42.045Z,8.43
2024-01-31T22:40:29.303Z,9.90
2024-01-31T22:43:17.084Z,9.77
2024-01-31T22:46:04.670Z,8.03
2024-01-31T22:48:53.522Z,5.57
2024-01-31T22:51:42.303Z,9.90
2024-01-31T22:54:30.334Z,5.40
2024-01-31T22:57:17.890Z,6.97
2024-01-31T23:00:08.796Z,7.37
2024-01-31T23:02:56.547Z,6.17
2024-01-31T23:05:43.929Z,11.10
2024-01-31T23:08:32.991Z,8.60
2024-01-31T23:11:20.496Z,6.90
2024-01-31T23:14:08.272Z,5.10
2024-01-31T23:16:55.520Z,7.67
2024-01-31T23:19:43.386Z,7.07
2024-01-31T23:22:30.907Z,7.43
2024-01-31T23:25:19.700Z,8.33
2024-01-31T23:28:07.569Z,8.80
2024-01-31T23:30:55.179Z,8.70
2024-01-31T23:33:42.810Z,6.40
2024-01-31T23:36:30.648Z,8.07
2024-01-31T23:39:18.318Z,10.63
2024-01-31T23:42:07.389Z,6.43
2024-01-31T23:44:55.405Z,7.17
2024-01-31T23:47:42.845Z,7.57
2024-01-31T23:50:30.681Z,7.90
2024-01-31T23:53:18.350Z,7.30
2024-01-31T23:56:06.897Z,6.60
2024-01-31T23:58:55.909Z,6.63
